sensor_id;sensor_type;location;lat;lon;timestamp;pressure;altitude;pressure_sealevel;temperature;humidity
50011;BME280;35899;50.352;19.390;2024-01-27T00:01:06;97991.81;;;2.87;100.00
50011;BME280;35899;50.352;19.390;2024-01-27T00:03:43;97986.36;;;2.86;100.00
50011;BME280;35899;50.352;19.390;2024-01-27T00:06:10;97996.11;;;2.86;100.00
50011;BME280;35899;50.352;19.390;2024-01-27T00:08:37;98004.42;;;2.88;100.00
50011;BME280;35899;50.352;19.390;2024-01-27T00:11:06;98008.50;;;2.89;100.00
50011;BME280;35899;50.352;19.390;2024-01-27T00:13:33;98012.05;;;2.90;100.00
50011;BME280;35899;50.352;19.390;2024-01-27T00:15:59;98022.95;;;2.90;100.00
50011;BME280;35899;50.352;19.390;2024-01-27T00:18:26;98022.64;;;2.90;100.00
50011;BME280;35899;50.352;19.390;2024-01-27T00:20:55;98032.17;;;2.90;100.00
50011;BME280;35899;50.352;19.390;2024-01-27T00:23:22;98035.83;;;2.89;100.00
50011;BME280;35899;50.352;19.390;2024-01-27T00:25:51;98039.45;;;2.88;100.00
50011;BME280;35899;50.352;19.390;2024-01-27T00:28:18;98041.23;;;2.86;100.00
50011;BME280;35899;50.352;19.390;2024-01-27T00:30:45;98041.77;;;2.85;100.00
50011;BME280;35899;50.352;19.390;2024-01-27T00:33:13;98052.77;;;2.84;100.00
50011;BME280;35899;50.352;19.390;2024-01-27T00:35:40;98062.52;;;2.84;100.00
50011;BME280;35899;50.352;19.390;2024-01-27T00:38:06;98062.48;;;2.84;100.00
50011;BME280;35899;50.352;19.390;2024-01-27T00:40:35;98070.52;;;2.85;100.00
50011;BME280;35899;50.352;19.390;2024-01-27T00:43:07;98072.64;;;2.83;100.00
50011;BME280;35899;50.352;19.390;2024-01-27T00:45:34;98087.86;;;2.82;100.00
50011;BME280;35899;50.352;19.390;2024-01-27T00:48:01;98086.05;;;2.81;100.00
50011;BME280;35899;50.352;19.390;2024-01-27T00:50:30;98086.96;;;2.79;100.00
50011;BME280;35899;50.352;19.390;2024-01-27T00:52:59;98092.48;;;2.77;100.00
50011;BME280;35899;50.352;19.390;2024-01-27T00:55:26;98102.43;;;2.77;100.00
50011;BME280;35899;50.352;19.390;2024-01-27T00:57:52;98105.02;;;2.76;100.00
50011;BME280;35899;50.352;19.390;2024-01-27T01:00:19;98113.73;;;2.76;100.00
50011;BME280;35899;50.352;19.390;2024-01-27T01:02:47;98118.87;;;2.76;100.00
50011;BME280;35899;50.352;19.390;2024-01-27T01:05:13;98118.37;;;2.75;100.00
50011;BME280;35899;50.352;19.390;2024-01-27T01:07:40;98123.17;;;2.74;100.00
50011;BME280;35899;50.352;19.390;2024-01-27T01:10:07;98126.41;;;2.75;100.00
50011;BME280;35899;50.352;19.390;2024-01-27T01:12:33;98126.23;;;2.75;100.00
50011;BME280;35899;50.352;19.390;2024-01-27T01:15:00;98136.64;;;2.76;100.00
50011;BME280;35899;50.352;19.390;2024-01-27T01:17:27;98133.82;;;2.78;100.00
50011;BME280;35899;50.352;19.390;2024-01-27T01:19:53;98135.45;;;2.80;100.00
50011;BME280;35899;50.352;19.390;2024-01-27T01:22:20;98136.80;;;2.81;100.00
50011;BME280;35899;50.352;19.390;2024-01-27T01:24:47;98142.07;;;2.82;100.00
50011;BME280;35899;50.352;19.390;2024-01-27T01:27:14;98143.95;;;2.82;100.00
50011;BME280;35899;50.352;19.390;2024-01-27T01:29:41;98143.86;;;2.79;100.00
50011;BME280;35899;50.352;19.390;2024-01-27T01:32:09;98144.18;;;2.75;100.00
50011;BME280;35899;50.352;19.390;2024-01-27T01:34:37;98147.39;;;2.71;100.00
50011;BME280;35899;50.352;19.390;2024-01-27T01:37:04;98139.51;;;2.67;100.00
50011;BME280;35899;50.352;19.390;2024-01-27T01:39:30;98140.29;;;2.64;100.00
50011;BME280;35899;50.352;19.390;2024-01-27T01:41:57;98144.77;;;2.63;100.00
50011;BME280;35899;50.352;19.390;2024-01-27T01:44:29;98152.27;;;2.63;100.00
50011;BME280;35899;50.352;19.390;2024-01-27T01:46:56;98142.85;;;2.64;100.00
50011;BME280;35899;50.352;19.390;2024-01-27T01:49:23;98146.44;;;2.64;100.00
50011;BME280;35899;50.352;19.390;2024-01-27T01:51:50;98146.52;;;2.67;100.00
50011;BME280;35899;50.352;19.390;2024-01-27T01:54:24;98145.27;;;2.68;100.00
50011;BME280;35899;50.352;19.390;2024-01-27T01:56:51;98150.67;;;2.70;100.00
50011;BME280;35899;50.352;19.390;2024-01-27T01:59:17;98153.36;;;2.71;100.00
50011;BME280;35899;50.352;19.390;2024-01-27T02:01:44;98157.21;;;2.73;100.00
50011;BME280;35899;50.352;19.390;2024-01-27T02:04:12;98147.77;;;2.75;100.00
50011;BME280;35899;50.352;19.390;2024-01-27T02:06:39;98162.73;;;2.77;100.00
50011;BME280;35899;50.352;19.390;2024-01-27T02:09:06;98175.85;;;2.79;100.00
50011;BME280;35899;50.352;19.390;2024-01-27T02:11:33;98168.83;;;2.79;100.00
50011;BME280;35899;50.352;19.390;2024-01-27T02:13:59;98172.57;;;2.79;100.00
50011;BME280;35899;50.352;19.390;2024-01-27T02:16:26;98171.16;;;2.80;100.00
50011;BME280;35899;50.352;19.390;2024-01-27T02:18:53;98173.71;;;2.81;100.00
50011;BME280;35899;50.352;19.390;2024-01-27T02:21:19;98170.15;;;2.80;100.00
50011;BME280;35899;50.352;19.390;2024-01-27T02:23:46;98173.92;;;2.80;100.00
50011;BME280;35899;50.352;19.390;2024-01-27T02:26:14;98176.13;;;2.80;100.00
50011;BME280;35899;50.352;19.390;2024-01-27T02:28:41;98174.05;;;2.81;100.00
50011;BME280;35899;50.352;19.390;2024-01-27T02:31:07;98178.00;;;2.80;100.00
50011;BME280;35899;50.352;19.390;2024-01-27T02:33:34;98178.55;;;2.79;100.00
50011;BME280;35899;50.352;19.390;2024-01-27T02:36:01;98174.83;;;2.78;100.00
50011;BME280;35899;50.352;19.390;2024-01-27T02:38:29;98175.05;;;2.77;100.00
50011;BME280;35899;50.352;19.390;2024-01-27T02:40:56;98168.77;;;2.75;100.00
50011;BME280;35899;50.352;19.390;2024-01-27T02:43:23;98171.52;;;2.75;100.00
50011;BME280;35899;50.352;19.390;2024-01-27T02:45:52;98172.60;;;2.73;100.00
50011;BME280;35899;50.352;19.390;2024-01-27T02:48:21;98177.42;;;2.72;100.00
50011;BME280;35899;50.352;19.390;2024-01-27T02:50:53;98177.27;;;2.72;100.00
50011;BME280;35899;50.352;19.390;2024-01-27T02:53:19;98176.32;;;2.70;100.00
50011;BME280;35899;50.352;19.390;2024-01-27T02:55:46;98175.49;;;2.69;100.00
50011;BME280;35899;50.352;19.390;2024-01-27T02:58:13;98182.89;;;2.67;100.00
50011;BME280;35899;50.352;19.390;2024-01-27T03:00:39;98186.84;;;2.66;100.00
50011;BME280;35899;50.352;19.390;2024-01-27T03:03:06;98190.63;;;2.65;100.00
50011;BME280;35899;50.352;19.390;2024-01-27T03:05:33;98190.83;;;2.65;100.00
50011;BME280;35899;50.352;19.390;2024-01-27T03:08:01;98197.33;;;2.64;100.00
50011;BME280;35899;50.352;19.390;2024-01-27T03:10:28;98193.06;;;2.65;100.00
50011;BME280;35899;50.352;19.390;2024-01-27T03:12:57;98202.45;;;2.65;100.00
50011;BME280;35899;50.352;19.390;2024-01-27T03:15:25;98209.28;;;2.65;100.00
50011;BME280;35899;50.352;19.390;2024-01-27T03:17:52;98207.05;;;2.65;100.00
50011;BME280;35899;50.352;19.390;2024-01-27T03:20:18;98209.47;;;2.65;100.00
50011;BME280;35899;50.352;19.390;2024-01-27T03:22:45;98212.73;;;2.64;100.00
50011;BME280;35899;50.352;19.390;2024-01-27T03:25:12;98219.73;;;2.64;100.00
50011;BME280;35899;50.352;19.390;2024-01-27T03:27:38;98221.61;;;2.64;100.00
50011;BME280;35899;50.352;19.390;2024-01-27T03:30:06;98233.21;;;2.65;100.00
50011;BME280;35899;50.352;19.390;2024-01-27T03:32:32;98229.44;;;2.65;100.00
50011;BME280;35899;50.352;19.390;2024-01-27T03:35:02;98236.58;;;2.66;100.00
50011;BME280;35899;50.352;19.390;2024-01-27T03:37:29;98239.38;;;2.64;100.00
50011;BME280;35899;50.352;19.390;2024-01-27T03:39:58;98235.46;;;2.63;100.00
50011;BME280;35899;50.352;19.390;2024-01-27T03:42:25;98231.55;;;2.63;100.00
50011;BME280;35899;50.352;19.390;2024-01-27T03:44:52;98226.32;;;2.61;100.00
50011;BME280;35899;50.352;19.390;2024-01-27T03:47:21;98221.92;;;2.60;100.00
50011;BME280;35899;50.352;19.390;2024-01-27T03:49:48;98224.53;;;2.59;100.00
50011;BME280;35899;50.352;19.390;2024-01-27T03:52:15;98235.63;;;2.59;100.00
50011;BME280;35899;50.352;19.390;2024-01-27T03:54:41;98246.05;;;2.59;100.00
50011;BME280;35899;50.352;19.390;2024-01-27T03:57:08;98251.88;;;2.58;100.00
50011;BME280;35899;50.352;19.390;2024-01-27T03:59:36;98252.13;;;2.55;100.00
50011;BME280;35899;50.352;19.390;2024-01-27T04:02:04;98254.33;;;2.51;100.00
50011;BME280;35899;50.352;19.390;2024-01-27T04:04:31;98258.45;;;2.45;100.00
50011;BME280;35899;50.352;19.390;2024-01-27T04:06:59;98253.14;;;2.40;100.00
50011;BME280;35899;50.352;19.390;2024-01-27T04:09:26;98249.73;;;2.34;100.00
50011;BME280;35899;50.352;19.390;2024-01-27T04:11:57;98259.01;;;2.32;100.00
50011;BME280;35899;50.352;19.390;2024-01-27T04:14:24;98261.19;;;2.29;100.00
50011;BME280;35899;50.352;19.390;2024-01-27T04:16:50;98259.73;;;2.26;100.00
50011;BME280;35899;50.352;19.390;2024-01-27T04:19:18;98257.91;;;2.24;100.00
50011;BME280;35899;50.352;19.390;2024-01-27T04:21:45;98262.60;;;2.21;100.00
50011;BME280;35899;50.352;19.390;2024-01-27T04:24:11;98261.81;;;2.19;100.00
50011;BME280;35899;50.352;19.390;2024-01-27T04:26:38;98266.86;;;2.17;100.00
50011;BME280;35899;50.352;19.390;2024-01-27T04:29:05;98273.86;;;2.16;100.00
50011;BME280;35899;50.352;19.390;2024-01-27T04:31:31;98275.83;;;2.13;100.00
50011;BME280;35899;50.352;19.390;2024-01-27T04:34:02;98279.25;;;2.13;100.00
50011;BME280;35899;50.352;19.390;2024-01-27T04:36:31;98279.59;;;2.13;100.00
50011;BME280;35899;50.352;19.390;2024-01-27T04:39:01;98281.31;;;2.13;100.00
50011;BME280;35899;50.352;19.390;2024-01-27T04:41:27;98283.70;;;2.13;100.00
50011;BME280;35899;50.352;19.390;2024-01-27T04:43:55;98284.04;;;2.13;100.00
50011;BME280;35899;50.352;19.390;2024-01-27T04:46:22;98286.75;;;2.13;100.00
50011;BME280;35899;50.352;19.390;2024-01-27T04:48:48;98290.35;;;2.13;100.00
50011;BME280;35899;50.352;19.390;2024-01-27T04:51:16;98285.89;;;2.14;100.00
50011;BME280;35899;50.352;19.390;2024-01-27T04:53:43;98295.25;;;2.15;100.00
50011;BME280;35899;50.352;19.390;2024-01-27T04:56:12;98294.67;;;2.17;100.00
50011;BME280;35899;50.352;19.390;2024-01-27T04:58:38;98299.05;;;2.19;100.00
50011;BME280;35899;50.352;19.390;2024-01-27T05:01:05;98302.60;;;2.20;100.00
50011;BME280;35899;50.352;19.390;2024-01-27T05:03:32;98300.70;;;2.21;100.00
50011;BME280;35899;50.352;19.390;2024-01-27T05:05:59;98289.29;;;2.20;100.00
50011;BME280;35899;50.352;19.390;2024-01-27T05:08:26;98298.86;;;2.19;100.00
50011;BME280;35899;50.352;19.390;2024-01-27T05:10:52;98303.14;;;2.19;100.00
50011;BME280;35899;50.352;19.390;2024-01-27T05:13:27;98296.98;;;2.20;100.00
50011;BME280;35899;50.352;19.390;2024-01-27T05:15:54;98294.42;;;2.20;100.00
50011;BME280;35899;50.352;19.390;2024-01-27T05:18:24;98294.80;;;2.18;100.00
50011;BME280;35899;50.352;19.390;2024-01-27T05:20:50;98292.94;;;2.18;100.00
50011;BME280;35899;50.352;19.390;2024-01-27T05:23:21;98297.70;;;2.18;100.00
50011;BME280;35899;50.352;19.390;2024-01-27T05:25:47;98298.58;;;2.18;100.00
50011;BME280;35899;50.352;19.390;2024-01-27T05:28:14;98296.67;;;2.19;100.00
50011;BME280;35899;50.352;19.390;2024-01-27T05:30:41;98295.66;;;2.18;100.00
50011;BME280;35899;50.352;19.390;2024-01-27T05:33:09;98289.19;;;2.18;100.00
50011;BME280;35899;50.352;19.390;2024-01-27T05:35:36;98290.59;;;2.16;100.00
50011;BME280;35899;50.352;19.390;2024-01-27T05:38:03;98293.98;;;2.17;100.00
50011;BME280;35899;50.352;19.390;2024-01-27T05:40:32;98290.41;;;2.17;100.00
50011;BME280;35899;50.352;19.390;2024-01-27T05:42:59;98287.04;;;2.15;100.00
50011;BME280;35899;50.352;19.390;2024-01-27T05:45:25;98291.50;;;2.14;100.00
50011;BME280;35899;50.352;19.390;2024-01-27T05:47:52;98297.66;;;2.14;100.00
50011;BME280;35899;50.352;19.390;2024-01-27T05:50:19;98300.39;;;2.14;100.00
50011;BME280;35899;50.352;19.390;2024-01-27T05:52:45;98299.02;;;2.14;100.00
50011;BME280;35899;50.352;19.390;2024-01-27T05:55:12;98306.66;;;2.15;100.00
50011;BME280;35899;50.352;19.390;2024-01-27T05:57:39;98300.33;;;2.16;100.00
50011;BME280;35899;50.352;19.390;2024-01-27T06:00:06;98309.00;;;2.18;100.00
50011;BME280;35899;50.352;19.390;2024-01-27T06:02:33;98306.55;;;2.19;100.00
50011;BME280;35899;50.352;19.390;2024-01-27T06:05:03;98315.29;;;2.19;100.00
50011;BME280;35899;50.352;19.390;2024-01-27T06:07:32;98321.76;;;2.19;100.00
50011;BME280;35899;50.352;19.390;2024-01-27T06:09:59;98314.92;;;2.19;100.00
50011;BME280;35899;50.352;19.390;2024-01-27T06:12:28;98314.41;;;2.19;100.00
50011;BME280;35899;50.352;19.390;2024-01-27T06:14:55;98313.04;;;2.20;100.00
50011;BME280;35899;50.352;19.390;2024-01-27T06:17:22;98317.66;;;2.19;100.00
50011;BME280;35899;50.352;19.390;2024-01-27T06:19:50;98316.99;;;2.19;100.00
50011;BME280;35899;50.352;19.390;2024-01-27T06:22:19;98319.73;;;2.18;100.00
50011;BME280;35899;50.352;19.390;2024-01-27T06:24:49;98310.66;;;2.19;100.00
50011;BME280;35899;50.352;19.390;2024-01-27T06:27:16;98327.04;;;2.19;100.00
50011;BME280;35899;50.352;19.390;2024-01-27T06:29:43;98321.44;;;2.18;100.00
50011;BME280;35899;50.352;19.390;2024-01-27T06:32:09;98331.34;;;2.19;100.00
50011;BME280;35899;50.352;19.390;2024-01-27T06:34:39;98332.35;;;2.19;100.00
50011;BME280;35899;50.352;19.390;2024-01-27T06:37:06;98333.52;;;2.20;100.00
50011;BME280;35899;50.352;19.390;2024-01-27T06:39:35;98334.38;;;2.20;100.00
50011;BME280;35899;50.352;19.390;2024-01-27T06:42:01;98331.30;;;2.19;100.00
50011;BME280;35899;50.352;19.390;2024-01-27T06:44:28;98335.08;;;2.19;100.00
50011;BME280;35899;50.352;19.390;2024-01-27T06:46:55;98336.27;;;2.19;100.00
50011;BME280;35899;50.352;19.390;2024-01-27T06:49:21;98332.81;;;2.21;100.00
50011;BME280;35899;50.352;19.390;2024-01-27T06:51:48;98336.36;;;2.22;100.00
50011;BME280;35899;50.352;19.390;2024-01-27T06:54:16;98339.48;;;2.20;100.00
50011;BME280;35899;50.352;19.390;2024-01-27T06:56:43;98339.13;;;2.20;100.00
50011;BME280;35899;50.352;19.390;2024-01-27T06:59:09;98344.74;;;2.21;100.00
50011;BME280;35899;50.352;19.390;2024-01-27T07:01:36;98343.98;;;2.23;100.00
50011;BME280;35899;50.352;19.390;2024-01-27T07:04:03;98348.59;;;2.24;100.00
50011;BME280;35899;50.352;19.390;2024-01-27T07:06:30;98354.07;;;2.23;100.00
50011;BME280;35899;50.352;19.390;2024-01-27T07:08:56;98353.36;;;2.24;100.00
50011;BME280;35899;50.352;19.390;2024-01-27T07:11:23;98344.98;;;2.25;100.00
50011;BME280;35899;50.352;19.390;2024-01-27T07:13:50;98350.11;;;2.24;100.00
50011;BME280;35899;50.352;19.390;2024-01-27T07:16:17;98344.13;;;2.25;100.00
50011;BME280;35899;50.352;19.390;2024-01-27T07:18:43;98346.59;;;2.28;100.00
50011;BME280;35899;50.352;19.390;2024-01-27T07:21:15;98345.52;;;2.29;100.00
50011;BME280;35899;50.352;19.390;2024-01-27T07:23:41;98342.56;;;2.31;100.00
50011;BME280;35899;50.352;19.390;2024-01-27T07:26:09;98345.48;;;2.31;100.00
50011;BME280;35899;50.352;19.390;2024-01-27T07:28:36;98348.89;;;2.31;100.00
50011;BME280;35899;50.352;19.390;2024-01-27T07:31:04;98346.65;;;2.32;100.00
50011;BME280;35899;50.352;19.390;2024-01-27T07:33:31;98349.16;;;2.33;100.00
50011;BME280;35899;50.352;19.390;2024-01-27T07:36:00;98348.05;;;2.37;100.00
50011;BME280;35899;50.352;19.390;2024-01-27T07:38:26;98351.71;;;2.39;100.00
50011;BME280;35899;50.352;19.390;2024-01-27T07:40:53;98359.06;;;2.39;100.00
50011;BME280;35899;50.352;19.390;2024-01-27T07:43:20;98353.29;;;2.38;100.00
50011;BME280;35899;50.352;19.390;2024-01-27T07:45:47;98353.31;;;2.37;100.00
50011;BME280;35899;50.352;19.390;2024-01-27T07:48:13;98364.11;;;2.42;100.00
50011;BME280;35899;50.352;19.390;2024-01-27T07:50:40;98359.02;;;2.46;100.00
50011;BME280;35899;50.352;19.390;2024-01-27T07:53:06;98362.85;;;2.50;100.00
50011;BME280;35899;50.352;19.390;2024-01-27T07:55:36;98363.27;;;2.53;100.00
50011;BME280;35899;50.352;19.390;2024-01-27T07:58:02;98356.89;;;2.54;100.00
50011;BME280;35899;50.352;19.390;2024-01-27T08:00:29;98356.66;;;2.56;100.00
50011;BME280;35899;50.352;19.390;2024-01-27T08:02:56;98364.58;;;2.55;100.00
50011;BME280;35899;50.352;19.390;2024-01-27T08:05:23;98361.98;;;2.50;100.00
50011;BME280;35899;50.352;19.390;2024-01-27T08:07:52;98366.52;;;2.46;100.00
50011;BME280;35899;50.352;19.390;2024-01-27T08:10:22;98352.58;;;2.45;100.00
50011;BME280;35899;50.352;19.390;2024-01-27T08:12:48;98359.79;;;2.43;100.00
50011;BME280;35899;50.352;19.390;2024-01-27T08:15:15;98372.16;;;2.41;100.00
50011;BME280;35899;50.352;19.390;2024-01-27T08:17:44;98375.45;;;2.40;100.00
50011;BME280;35899;50.352;19.390;2024-01-27T08:20:11;98367.81;;;2.38;100.00
50011;BME280;35899;50.352;19.390;2024-01-27T08:22:40;98365.84;;;2.36;100.00
50011;BME280;35899;50.352;19.390;2024-01-27T08:25:07;98367.85;;;2.37;100.00
50011;BME280;35899;50.352;19.390;2024-01-27T08:27:36;98366.40;;;2.39;100.00
50011;BME280;35899;50.352;19.390;2024-01-27T08:30:06;98364.45;;;2.42;100.00
50011;BME280;35899;50.352;19.390;2024-01-27T08:32:33;98370.92;;;2.42;100.00
50011;BME280;35899;50.352;19.390;2024-01-27T08:35:00;98380.41;;;2.40;100.00
50011;BME280;35899;50.352;19.390;2024-01-27T08:37:27;98367.30;;;2.32;100.00
50011;BME280;35899;50.352;19.390;2024-01-27T08:39:53;98379.64;;;2.25;100.00
50011;BME280;35899;50.352;19.390;2024-01-27T08:42:23;98375.81;;;2.21;100.00
50011;BME280;35899;50.352;19.390;2024-01-27T08:44:52;98378.08;;;2.14;100.00
50011;BME280;35899;50.352;19.390;2024-01-27T08:47:18;98381.55;;;2.06;100.00
50011;BME280;35899;50.352;19.390;2024-01-27T08:49:47;98386.29;;;1.95;100.00
50011;BME280;35899;50.352;19.390;2024-01-27T08:52:14;98391.61;;;1.82;100.00
50011;BME280;35899;50.352;19.390;2024-01-27T08:54:41;98388.38;;;1.68;100.00
50011;BME280;35899;50.352;19.390;2024-01-27T08:57:08;98396.75;;;1.55;100.00
50011;BME280;35899;50.352;19.390;2024-01-27T08:59:34;98395.11;;;1.46;100.00
50011;BME280;35899;50.352;19.390;2024-01-27T09:02:03;98399.34;;;1.34;100.00
50011;BME280;35899;50.352;19.390;2024-01-27T09:04:33;98405.48;;;1.28;100.00
50011;BME280;35899;50.352;19.390;2024-01-27T09:06:59;98402.05;;;1.21;100.00
50011;BME280;35899;50.352;19.390;2024-01-27T09:09:26;98405.33;;;1.20;100.00
50011;BME280;35899;50.352;19.390;2024-01-27T09:11:55;98407.93;;;1.17;100.00
50011;BME280;35899;50.352;19.390;2024-01-27T09:14:21;98412.75;;;1.16;100.00
50011;BME280;35899;50.352;19.390;2024-01-27T09:16:48;98411.58;;;1.15;100.00
50011;BME280;35899;50.352;19.390;2024-01-27T09:19:20;98408.27;;;1.18;100.00
50011;BME280;35899;50.352;19.390;2024-01-27T09:21:47;98403.28;;;1.20;100.00
50011;BME280;35899;50.352;19.390;2024-01-27T09:24:16;98402.30;;;1.25;100.00
50011;BME280;35899;50.352;19.390;2024-01-27T09:26:43;98400.30;;;1.23;100.00
50011;BME280;35899;50.352;19.390;2024-01-27T09:29:09;98402.84;;;1.17;100.00
50011;BME280;35899;50.352;19.390;2024-01-27T09:31:39;98405.38;;;1.10;100.00
50011;BME280;35899;50.352;19.390;2024-01-27T09:34:07;98398.51;;;1.05;100.00
50011;BME280;35899;50.352;19.390;2024-01-27T09:36:35;98403.33;;;1.04;100.00
50011;BME280;35899;50.352;19.390;2024-01-27T09:39:02;98403.46;;;1.05;100.00
50011;BME280;35899;50.352;19.390;2024-01-27T09:41:32;98407.41;;;1.04;100.00
50011;BME280;35899;50.352;19.390;2024-01-27T09:44:04;98402.09;;;0.98;100.00
50011;BME280;35899;50.352;19.390;2024-01-27T09:46:31;98405.98;;;0.92;100.00
50011;BME280;35899;50.352;19.390;2024-01-27T09:48:58;98405.09;;;0.87;100.00
50011;BME280;35899;50.352;19.390;2024-01-27T09:51:25;98399.89;;;0.90;100.00
50011;BME280;35899;50.352;19.390;2024-01-27T09:53:55;98405.29;;;0.93;100.00
50011;BME280;35899;50.352;19.390;2024-01-27T09:56:22;98409.41;;;0.91;100.00
50011;BME280;35899;50.352;19.390;2024-01-27T09:58:55;98403.80;;;0.91;100.00
50011;BME280;35899;50.352;19.390;2024-01-27T10:01:24;98408.05;;;0.92;100.00
50011;BME280;35899;50.352;19.390;2024-01-27T10:03:51;98410.91;;;0.93;100.00
50011;BME280;35899;50.352;19.390;2024-01-27T10:06:24;98413.27;;;0.94;100.00
50011;BME280;35899;50.352;19.390;2024-01-27T10:08:55;98407.75;;;0.96;100.00
50011;BME280;35899;50.352;19.390;2024-01-27T10:11:23;98407.87;;;0.99;100.00
50011;BME280;35899;50.352;19.390;2024-01-27T10:13:56;98406.38;;;1.04;100.00
50011;BME280;35899;50.352;19.390;2024-01-27T10:16:27;98407.11;;;1.09;100.00
50011;BME280;35899;50.352;19.390;2024-01-27T10:19:03;98410.54;;;1.09;100.00
50011;BME280;35899;50.352;19.390;2024-01-27T10:21:33;98407.93;;;1.10;100.00
50011;BME280;35899;50.352;19.390;2024-01-27T10:24:00;98410.55;;;1.15;100.00
50011;BME280;35899;50.352;19.390;2024-01-27T10:26:30;98414.63;;;1.15;100.00
50011;BME280;35899;50.352;19.390;2024-01-27T10:28:57;98412.64;;;1.13;100.00
50011;BME280;35899;50.352;19.390;2024-01-27T10:31:32;98413.54;;;1.11;100.00
50011;BME280;35899;50.352;19.390;2024-01-27T10:34:00;98424.40;;;1.13;100.00
50011;BME280;35899;50.352;19.390;2024-01-27T10:36:27;98417.23;;;1.14;100.00
50011;BME280;35899;50.352;19.390;2024-01-27T10:39:20;98428.64;;;1.14;100.00
50011;BME280;35899;50.352;19.390;2024-01-27T10:41:50;98427.41;;;1.15;100.00
50011;BME280;35899;50.352;19.390;2024-01-27T10:44:19;98427.86;;;1.18;100.00
50011;BME280;35899;50.352;19.390;2024-01-27T10:46:49;98424.88;;;1.22;100.00
50011;BME280;35899;50.352;19.390;2024-01-27T10:49:22;98420.82;;;1.28;100.00
50011;BME280;35899;50.352;19.390;2024-01-27T10:51:55;98416.05;;;1.34;100.00
50011;BME280;35899;50.352;19.390;2024-01-27T10:54:25;98420.02;;;1.39;100.00
50011;BME280;35899;50.352;19.390;2024-01-27T10:56:56;98420.80;;;1.48;100.00
50011;BME280;35899;50.352;19.390;2024-01-27T10:59:26;98423.86;;;1.56;100.00
50011;BME280;35899;50.352;19.390;2024-01-27T11:01:58;98422.85;;;1.62;100.00
50011;BME280;35899;50.352;19.390;2024-01-27T11:04:29;98421.92;;;1.65;100.00
50011;BME280;35899;50.352;19.390;2024-01-27T11:06:58;98425.23;;;1.62;100.00
50011;BME280;35899;50.352;19.390;2024-01-27T11:09:25;98426.39;;;1.57;100.00
50011;BME280;35899;50.352;19.390;2024-01-27T11:11:52;98433.45;;;1.54;100.00
50011;BME280;35899;50.352;19.390;2024-01-27T11:14:22;98433.39;;;1.50;100.00
50011;BME280;35899;50.352;19.390;2024-01-27T11:16:55;98430.79;;;1.45;100.00
50011;BME280;35899;50.352;19.390;2024-01-27T11:19:24;98444.52;;;1.41;100.00
50011;BME280;35899;50.352;19.390;2024-01-27T11:22:05;98441.02;;;1.38;100.00
50011;BME280;35899;50.352;19.390;2024-01-27T11:24:34;98445.08;;;1.40;100.00
50011;BME280;35899;50.352;19.390;2024-01-27T11:27:04;98440.67;;;1.45;100.00
50011;BME280;35899;50.352;19.390;2024-01-27T11:29:35;98441.83;;;1.47;100.00
50011;BME280;35899;50.352;19.390;2024-01-27T11:32:02;98441.24;;;1.49;100.00
50011;BME280;35899;50.352;19.390;2024-01-27T11:34:45;98446.81;;;1.51;100.00
50011;BME280;35899;50.352;19.390;2024-01-27T11:37:15;98449.03;;;1.52;100.00
50011;BME280;35899;50.352;19.390;2024-01-27T11:39:42;98453.45;;;1.52;100.00
50011;BME280;35899;50.352;19.390;2024-01-27T11:42:12;98451.95;;;1.51;100.00
50011;BME280;35899;50.352;19.390;2024-01-27T11:44:41;98457.76;;;1.50;100.00
50011;BME280;35899;50.352;19.390;2024-01-27T11:47:18;98460.94;;;1.53;100.00
50011;BME280;35899;50.352;19.390;2024-01-27T11:49:52;98469.55;;;1.56;100.00
50011;BME280;35899;50.352;19.390;2024-01-27T11:52:20;98467.88;;;1.55;100.00
50011;BME280;35899;50.352;19.390;2024-01-27T11:54:59;98463.04;;;1.50;100.00
50011;BME280;35899;50.352;19.390;2024-01-27T11:57:27;98474.87;;;1.49;100.00
50011;BME280;35899;50.352;19.390;2024-01-27T11:59:54;98473.23;;;1.46;100.00
50011;BME280;35899;50.352;19.390;2024-01-27T12:02:21;98474.17;;;1.42;100.00
50011;BME280;35899;50.352;19.390;2024-01-27T12:04:54;98483.34;;;1.36;100.00
50011;BME280;35899;50.352;19.390;2024-01-27T12:07:24;98482.80;;;1.31;100.00
50011;BME280;35899;50.352;19.390;2024-01-27T12:09:52;98480.50;;;1.27;100.00
50011;BME280;35899;50.352;19.390;2024-01-27T12:12:19;98487.68;;;1.26;100.00
50011;BME280;35899;50.352;19.390;2024-01-27T12:14:48;98488.74;;;1.25;100.00
50011;BME280;35899;50.352;19.390;2024-01-27T12:17:19;98498.00;;;1.22;100.00
50011;BME280;35899;50.352;19.390;2024-01-27T12:19:51;98493.10;;;1.21;100.00
50011;BME280;35899;50.352;19.390;2024-01-27T12:22:36;98494.29;;;1.21;100.00
50011;BME280;35899;50.352;19.390;2024-01-27T12:25:11;98493.60;;;1.21;100.00
50011;BME280;35899;50.352;19.390;2024-01-27T12:27:39;98497.05;;;1.26;100.00
50011;BME280;35899;50.352;19.390;2024-01-27T12:30:09;98502.75;;;1.31;100.00
50011;BME280;35899;50.352;19.390;2024-01-27T12:32:36;98501.30;;;1.34;100.00
50011;BME280;35899;50.352;19.390;2024-01-27T12:35:06;98508.75;;;1.36;100.00
50011;BME280;35899;50.352;19.390;2024-01-27T12:37:34;98511.86;;;1.42;100.00
50011;BME280;35899;50.352;19.390;2024-01-27T12:40:02;98510.45;;;1.44;100.00
50011;BME280;35899;50.352;19.390;2024-01-27T12:42:29;98512.14;;;1.45;100.00
50011;BME280;35899;50.352;19.390;2024-01-27T12:44:58;98514.18;;;1.45;100.00
50011;BME280;35899;50.352;19.390;2024-01-27T12:47:27;98514.63;;;1.47;100.00
50011;BME280;35899;50.352;19.390;2024-01-27T12:49:54;98527.11;;;1.46;100.00
50011;BME280;35899;50.352;19.390;2024-01-27T12:52:21;98523.39;;;1.45;100.00
50011;BME280;35899;50.352;19.390;2024-01-27T12:54:48;98523.77;;;1.43;100.00